sensor_id;sensor_type;location;lat;lon;timestamp;P1;durP1;ratioP1;P2;durP2;ratioP2
27438;SDS011;14887;51.252;7.470;2022-11-14T00:02:10;2.70;;;1.83;;
27438;SDS011;14887;51.252;7.470;2022-11-14T00:04:36;2.53;;;1.60;;
27438;SDS011;14887;51.252;7.470;2022-11-14T00:07:02;2.70;;;1.73;;
27438;SDS011;14887;51.252;7.470;2022-11-14T00:09:29;3.13;;;2.00;;
27438;SDS011;14887;51.252;7.470;2022-11-14T00:11:55;3.50;;;1.87;;
27438;SDS011;14887;51.252;7.470;2022-11-14T00:14:20;2.00;;;1.63;;
27438;SDS011;14887;51.252;7.470;2022-11-14T00:16:46;2.60;;;1.73;;
27438;SDS011;14887;51.252;7.470;2022-11-14T00:19:13;2.73;;;1.63;;
27438;SDS011;14887;51.252;7.470;2022-11-14T00:21:39;3.50;;;1.80;;
27438;SDS011;14887;51.252;7.470;2022-11-14T00:24:05;2.93;;;1.70;;
27438;SDS011;14887;51.252;7.470;2022-11-14T00:26:31;2.27;;;1.60;;
27438;SDS011;14887;51.252;7.470;2022-11-14T00:28:57;2.37;;;1.60;;
27438;SDS011;14887;51.252;7.470;2022-11-14T00:31:23;4.63;;;1.63;;
27438;SDS011;14887;51.252;7.470;2022-11-14T00:33:49;2.13;;;1.57;;
27438;SDS011;14887;51.252;7.470;2022-11-14T00:36:15;4.90;;;2.23;;
27438;SDS011;14887;51.252;7.470;2022-11-14T00:38:41;3.33;;;2.23;;
27438;SDS011;14887;51.252;7.470;2022-11-14T00:41:07;3.00;;;1.80;;
27438;SDS011;14887;51.252;7.470;2022-11-14T00:43:33;4.20;;;1.50;;
27438;SDS011;14887;51.252;7.470;2022-11-14T00:45:59;3.67;;;1.90;;
27438;SDS011;14887;51.252;7.470;2022-11-14T00:48:25;2.37;;;1.70;;
27438;SDS011;14887;51.252;7.470;2022-11-14T00:50:51;4.03;;;2.50;;
27438;SDS011;14887;51.252;7.470;2022-11-14T00:53:17;3.80;;;2.40;;
27438;SDS011;14887;51.252;7.470;2022-11-14T00:55:43;3.07;;;2.13;;
27438;SDS011;14887;51.252;7.470;2022-11-14T00:58:09;5.63;;;1.80;;
27438;SDS011;14887;51.252;7.470;2022-11-14T01:00:36;3.23;;;1.70;;
27438;SDS011;14887;51.252;7.470;2022-11-14T01:03:02;5.43;;;2.80;;
27438;SDS011;14887;51.252;7.470;2022-11-14T01:05:28;2.67;;;1.77;;
27438;SDS011;14887;51.252;7.470;2022-11-14T01:07:54;3.70;;;1.67;;
27438;SDS011;14887;51.252;7.470;2022-11-14T01:10:20;4.67;;;2.13;;
27438;SDS011;14887;51.252;7.470;2022-11-14T01:12:46;4.07;;;2.10;;
27438;SDS011;14887;51.252;7.470;2022-11-14T01:15:12;6.97;;;2.00;;
27438;SDS011;14887;51.252;7.470;2022-11-14T01:17:38;4.13;;;2.30;;
27438;SDS011;14887;51.252;7.470;2022-11-14T01:20:05;6.80;;;2.53;;
27438;SDS011;14887;51.252;7.470;2022-11-14T01:22:31;3.80;;;2.43;;
27438;SDS011;14887;51.252;7.470;2022-11-14T01:24:57;5.70;;;1.80;;
27438;SDS011;14887;51.252;7.470;2022-11-14T01:27:24;2.93;;;2.00;;
27438;SDS011;14887;51.252;7.470;2022-11-14T01:29:50;3.13;;;2.10;;
27438;SDS011;14887;51.252;7.470;2022-11-14T01:32:16;4.97;;;2.37;;
27438;SDS011;14887;51.252;7.470;2022-11-14T01:34:42;4.43;;;2.33;;
27438;SDS011;14887;51.252;7.470;2022-11-14T01:37:08;3.53;;;2.17;;
27438;SDS011;14887;51.252;7.470;2022-11-14T01:39:34;3.60;;;2.10;;
27438;SDS011;14887;51.252;7.470;2022-11-14T01:42:00;3.73;;;2.10;;
27438;SDS011;14887;51.252;7.470;2022-11-14T01:44:42;4.07;;;1.80;;
27438;SDS011;14887;51.252;7.470;2022-11-14T01:49:19;6.53;;;2.27;;
27438;SDS011;14887;51.252;7.470;2022-11-14T01:52:00;4.53;;;2.43;;
27438;SDS011;14887;51.252;7.470;2022-11-14T01:54:28;5.27;;;2.13;;
27438;SDS011;14887;51.252;7.470;2022-11-14T01:56:55;4.30;;;2.20;;
27438;SDS011;14887;51.252;7.470;2022-11-14T01:59:26;3.17;;;2.17;;
27438;SDS011;14887;51.252;7.470;2022-11-14T02:01:53;4.07;;;2.33;;
27438;SDS011;14887;51.252;7.470;2022-11-14T02:04:22;5.77;;;2.33;;
27438;SDS011;14887;51.252;7.470;2022-11-14T02:06:49;4.50;;;2.43;;
27438;SDS011;14887;51.252;7.470;2022-11-14T02:09:16;4.37;;;2.57;;
27438;SDS011;14887;51.252;7.470;2022-11-14T02:11:43;4.07;;;2.13;;
27438;SDS011;14887;51.252;7.470;2022-11-14T02:14:09;4.63;;;2.23;;
27438;SDS011;14887;51.252;7.470;2022-11-14T02:16:37;4.83;;;2.57;;
27438;SDS011;14887;51.252;7.470;2022-11-14T02:19:04;4.70;;;2.80;;
27438;SDS011;14887;51.252;7.470;2022-11-14T02:21:30;3.70;;;2.43;;
27438;SDS011;14887;51.252;7.470;2022-11-14T02:23:56;4.30;;;2.57;;
27438;SDS011;14887;51.252;7.470;2022-11-14T02:26:22;4.63;;;2.50;;
27438;SDS011;14887;51.252;7.470;2022-11-14T02:28:48;10.57;;;2.23;;
27438;SDS011;14887;51.252;7.470;2022-11-14T02:31:15;5.10;;;2.77;;
27438;SDS011;14887;51.252;7.470;2022-11-14T02:33:41;4.70;;;2.47;;
27438;SDS011;14887;51.252;7.470;2022-11-14T02:36:07;4.10;;;2.60;;
27438;SDS011;14887;51.252;7.470;2022-11-14T02:38:33;6.10;;;2.43;;
27438;SDS011;14887;51.252;7.470;2022-11-14T02:40:59;6.27;;;2.73;;
27438;SDS011;14887;51.252;7.470;2022-11-14T02:43:26;4.10;;;2.37;;
27438;SDS011;14887;51.252;7.470;2022-11-14T02:45:52;5.40;;;3.20;;
27438;SDS011;14887;51.252;7.470;2022-11-14T02:48:18;4.90;;;2.80;;
27438;SDS011;14887;51.252;7.470;2022-11-14T02:50:46;6.47;;;3.77;;
27438;SDS011;14887;51.252;7.470;2022-11-14T02:53:12;11.00;;;3.13;;
27438;SDS011;14887;51.252;7.470;2022-11-14T02:55:38;6.70;;;2.63;;
27438;SDS011;14887;51.252;7.470;2022-11-14T02:58:04;5.20;;;2.50;;
27438;SDS011;14887;51.252;7.470;2022-11-14T03:00:31;5.60;;;3.33;;
27438;SDS011;14887;51.252;7.470;2022-11-14T03:02:57;6.10;;;2.87;;
27438;SDS011;14887;51.252;7.470;2022-11-14T03:05:23;6.00;;;2.47;;
27438;SDS011;14887;51.252;7.470;2022-11-14T03:07:53;8.03;;;3.50;;
27438;SDS011;14887;51.252;7.470;2022-11-14T03:10:20;3.33;;;2.40;;
27438;SDS011;14887;51.252;7.470;2022-11-14T03:12:46;6.30;;;2.90;;
27438;SDS011;14887;51.252;7.470;2022-11-14T03:15:12;6.17;;;3.60;;
27438;SDS011;14887;51.252;7.470;2022-11-14T03:17:38;7.30;;;3.47;;
27438;SDS011;14887;51.252;7.470;2022-11-14T03:20:04;7.57;;;2.80;;
27438;SDS011;14887;51.252;7.470;2022-11-14T03:22:30;4.77;;;2.80;;
27438;SDS011;14887;51.252;7.470;2022-11-14T03:24:56;4.77;;;3.30;;
27438;SDS011;14887;51.252;7.470;2022-11-14T03:27:23;14.37;;;4.13;;
27438;SDS011;14887;51.252;7.470;2022-11-14T03:29:49;5.00;;;3.10;;
27438;SDS011;14887;51.252;7.470;2022-11-14T03:32:15;6.37;;;3.30;;
27438;SDS011;14887;51.252;7.470;2022-11-14T03:34:41;5.73;;;3.20;;
27438;SDS011;14887;51.252;7.470;2022-11-14T03:37:07;9.20;;;3.70;;
27438;SDS011;14887;51.252;7.470;2022-11-14T03:39:33;5.27;;;2.87;;
27438;SDS011;14887;51.252;7.470;2022-11-14T03:41:59;7.27;;;4.13;;
27438;SDS011;14887;51.252;7.470;2022-11-14T03:44:25;8.47;;;3.93;;
27438;SDS011;14887;51.252;7.470;2022-11-14T03:46:52;7.17;;;3.63;;
27438;SDS011;14887;51.252;7.470;2022-11-14T03:49:18;7.50;;;3.33;;
27438;SDS011;14887;51.252;7.470;2022-11-14T03:51:44;6.90;;;3.77;;
27438;SDS011;14887;51.252;7.470;2022-11-14T03:54:10;6.77;;;4.07;;
27438;SDS011;14887;51.252;7.470;2022-11-14T03:56:36;8.10;;;4.33;;
27438;SDS011;14887;51.252;7.470;2022-11-14T03:59:02;9.23;;;4.40;;
27438;SDS011;14887;51.252;7.470;2022-11-14T04:01:28;12.17;;;5.17;;
27438;SDS011;14887;51.252;7.470;2022-11-14T04:03:54;8.77;;;4.00;;
27438;SDS011;14887;51.252;7.470;2022-11-14T04:06:20;9.73;;;4.87;;
27438;SDS011;14887;51.252;7.470;2022-11-14T04:08:46;7.80;;;4.63;;
27438;SDS011;14887;51.252;7.470;2022-11-14T04:11:12;11.97;;;4.70;;
27438;SDS011;14887;51.252;7.470;2022-11-14T04:13:38;8.30;;;5.10;;
27438;SDS011;14887;51.252;7.470;2022-11-14T04:16:04;8.73;;;4.77;;
27438;SDS011;14887;51.252;7.470;2022-11-14T04:18:30;7.60;;;4.30;;
27438;SDS011;14887;51.252;7.470;2022-11-14T04:20:56;10.30;;;4.87;;
27438;SDS011;14887;51.252;7.470;2022-11-14T04:23:22;9.53;;;5.33;;
27438;SDS011;14887;51.252;7.470;2022-11-14T04:25:48;12.33;;;4.47;;
27438;SDS011;14887;51.252;7.470;2022-11-14T04:28:14;6.73;;;4.40;;
27438;SDS011;14887;51.252;7.470;2022-11-14T04:30:40;11.17;;;4.93;;
27438;SDS011;14887;51.252;7.470;2022-11-14T04:33:06;11.43;;;5.13;;
27438;SDS011;14887;51.252;7.470;2022-11-14T04:35:33;10.40;;;5.20;;
27438;SDS011;14887;51.252;7.470;2022-11-14T04:37:58;7.93;;;4.03;;
27438;SDS011;14887;51.252;7.470;2022-11-14T04:40:24;7.87;;;4.73;;
27438;SDS011;14887;51.252;7.470;2022-11-14T04:42:51;12.33;;;4.93;;
27438;SDS011;14887;51.252;7.470;2022-11-14T04:45:16;12.40;;;5.50;;
27438;SDS011;14887;51.252;7.470;2022-11-14T04:47:42;11.90;;;5.03;;
27438;SDS011;14887;51.252;7.470;2022-11-14T04:50:09;8.70;;;4.97;;
27438;SDS011;14887;51.252;7.470;2022-11-14T04:52:35;9.10;;;5.47;;
27438;SDS011;14887;51.252;7.470;2022-11-14T04:55:01;9.83;;;4.47;;
27438;SDS011;14887;51.252;7.470;2022-11-14T04:57:27;10.07;;;4.73;;
27438;SDS011;14887;51.252;7.470;2022-11-14T04:59:53;8.37;;;4.20;;
27438;SDS011;14887;51.252;7.470;2022-11-14T05:02:19;7.77;;;5.07;;
27438;SDS011;14887;51.252;7.470;2022-11-14T05:04:45;8.07;;;4.60;;
27438;SDS011;14887;51.252;7.470;2022-11-14T05:07:12;12.60;;;5.87;;
27438;SDS011;14887;51.252;7.470;2022-11-14T05:09:38;14.47;;;5.63;;
27438;SDS011;14887;51.252;7.470;2022-11-14T05:12:04;10.43;;;5.70;;
27438;SDS011;14887;51.252;7.470;2022-11-14T05:14:30;15.37;;;5.83;;
27438;SDS011;14887;51.252;7.470;2022-11-14T05:16:57;9.37;;;5.73;;
27438;SDS011;14887;51.252;7.470;2022-11-14T05:19:23;10.47;;;5.40;;
27438;SDS011;14887;51.252;7.470;2022-11-14T05:21:49;12.93;;;5.60;;
27438;SDS011;14887;51.252;7.470;2022-11-14T05:24:15;14.70;;;6.07;;
27438;SDS011;14887;51.252;7.470;2022-11-14T05:26:41;11.10;;;5.33;;
27438;SDS011;14887;51.252;7.470;2022-11-14T05:29:07;11.10;;;5.83;;
27438;SDS011;14887;51.252;7.470;2022-11-14T05:31:33;12.33;;;6.33;;
27438;SDS011;14887;51.252;7.470;2022-11-14T05:33:59;12.20;;;6.33;;
27438;SDS011;14887;51.252;7.470;2022-11-14T05:36:25;11.97;;;6.17;;
27438;SDS011;14887;51.252;7.470;2022-11-14T05:38:51;20.40;;;7.03;;
27438;SDS011;14887;51.252;7.470;2022-11-14T05:41:17;14.10;;;6.33;;
27438;SDS011;14887;51.252;7.470;2022-11-14T05:43:46;12.67;;;6.10;;
27438;SDS011;14887;51.252;7.470;2022-11-14T05:46:13;12.00;;;6.20;;
27438;SDS011;14887;51.252;7.470;2022-11-14T05:48:40;13.17;;;6.30;;
27438;SDS011;14887;51.252;7.470;2022-11-14T05:51:06;16.30;;;6.70;;
27438;SDS011;14887;51.252;7.470;2022-11-14T05:53:33;14.50;;;6.73;;
27438;SDS011;14887;51.252;7.470;2022-11-14T05:55:59;13.00;;;6.37;;
27438;SDS011;14887;51.252;7.470;2022-11-14T05:58:26;13.33;;;6.17;;
27438;SDS011;14887;51.252;7.470;2022-11-14T06:00:52;12.10;;;6.20;;
27438;SDS011;14887;51.252;7.470;2022-11-14T06:03:18;17.77;;;6.40;;
27438;SDS011;14887;51.252;7.470;2022-11-14T06:05:44;15.50;;;7.00;;
27438;SDS011;14887;51.252;7.470;2022-11-14T06:08:10;19.60;;;9.00;;
27438;SDS011;14887;51.252;7.470;2022-11-14T06:10:36;13.20;;;6.70;;
27438;SDS011;14887;51.252;7.470;2022-11-14T06:13:03;13.07;;;6.53;;
27438;SDS011;14887;51.252;7.470;2022-11-14T06:15:29;13.70;;;6.33;;
27438;SDS011;14887;51.252;7.470;2022-11-14T06:17:55;12.50;;;6.63;;
27438;SDS011;14887;51.252;7.470;2022-11-14T06:20:21;12.47;;;6.87;;
27438;SDS011;14887;51.252;7.470;2022-11-14T06:22:48;18.73;;;8.37;;
27438;SDS011;14887;51.252;7.470;2022-11-14T06:25:14;16.77;;;7.80;;
27438;SDS011;14887;51.252;7.470;2022-11-14T06:27:40;13.87;;;7.00;;
27438;SDS011;14887;51.252;7.470;2022-11-14T06:30:06;15.00;;;7.37;;
27438;SDS011;14887;51.252;7.470;2022-11-14T06:32:32;18.77;;;7.70;;
27438;SDS011;14887;51.252;7.470;2022-11-14T06:34:58;17.90;;;8.00;;
27438;SDS011;14887;51.252;7.470;2022-11-14T06:37:24;17.23;;;8.33;;
27438;SDS011;14887;51.252;7.470;2022-11-14T06:39:50;12.10;;;7.50;;
27438;SDS011;14887;51.252;7.470;2022-11-14T06:42:16;17.60;;;7.73;;
27438;SDS011;14887;51.252;7.470;2022-11-14T06:44:42;14.80;;;6.67;;
27438;SDS011;14887;51.252;7.470;2022-11-14T06:47:08;25.10;;;8.40;;
27438;SDS011;14887;51.252;7.470;2022-11-14T06:49:34;14.90;;;7.60;;
27438;SDS011;14887;51.252;7.470;2022-11-14T06:52:00;21.47;;;9.10;;
27438;SDS011;14887;51.252;7.470;2022-11-14T06:54:26;17.10;;;8.60;;
27438;SDS011;14887;51.252;7.470;2022-11-14T06:56:52;18.30;;;8.40;;
27438;SDS011;14887;51.252;7.470;2022-11-14T06:59:18;22.83;;;8.67;;
27438;SDS011;14887;51.252;7.470;2022-11-14T07:01:44;16.83;;;8.17;;
27438;SDS011;14887;51.252;7.470;2022-11-14T07:04:10;16.47;;;8.20;;
27438;SDS011;14887;51.252;7.470;2022-11-14T07:06:36;19.80;;;8.53;;
27438;SDS011;14887;51.252;7.470;2022-11-14T07:09:02;18.00;;;9.07;;
27438;SDS011;14887;51.252;7.470;2022-11-14T07:11:28;24.47;;;9.60;;
27438;SDS011;14887;51.252;7.470;2022-11-14T07:13:56;21.87;;;8.63;;
27438;SDS011;14887;51.252;7.470;2022-11-14T07:16:23;22.20;;;10.30;;
27438;SDS011;14887;51.252;7.470;2022-11-14T07:18:50;18.13;;;8.70;;
27438;SDS011;14887;51.252;7.470;2022-11-14T07:21:16;19.87;;;8.57;;
27438;SDS011;14887;51.252;7.470;2022-11-14T07:23:42;16.87;;;9.13;;
27438;SDS011;14887;51.252;7.470;2022-11-14T07:26:09;16.23;;;8.50;;
27438;SDS011;14887;51.252;7.470;2022-11-14T07:28:36;20.33;;;9.40;;
27438;SDS011;14887;51.252;7.470;2022-11-14T07:31:03;19.50;;;9.47;;
27438;SDS011;14887;51.252;7.470;2022-11-14T07:33:29;19.87;;;9.63;;
27438;SDS011;14887;51.252;7.470;2022-11-14T07:35:55;20.60;;;10.20;;
27438;SDS011;14887;51.252;7.470;2022-11-14T07:38:21;20.77;;;9.87;;
27438;SDS011;14887;51.252;7.470;2022-11-14T07:43:19;19.37;;;9.07;;
27438;SDS011;14887;51.252;7.470;2022-11-14T07:45:45;29.13;;;12.60;;
27438;SDS011;14887;51.252;7.470;2022-11-14T07:48:11;29.63;;;9.30;;
27438;SDS011;14887;51.252;7.470;2022-11-14T07:50:37;25.73;;;11.17;;
27438;SDS011;14887;51.252;7.470;2022-11-14T07:53:03;21.47;;;9.50;;
27438;SDS011;14887;51.252;7.470;2022-11-14T07:55:29;19.80;;;9.33;;
27438;SDS011;14887;51.252;7.470;2022-11-14T07:57:57;23.73;;;10.13;;
27438;SDS011;14887;51.252;7.470;2022-11-14T08:00:23;23.00;;;9.80;;
27438;SDS011;14887;51.252;7.470;2022-11-14T08:02:49;18.50;;;8.60;;
27438;SDS011;14887;51.252;7.470;2022-11-14T08:05:16;22.53;;;10.37;;
27438;SDS011;14887;51.252;7.470;2022-11-14T08:07:42;24.43;;;9.57;;
27438;SDS011;14887;51.252;7.470;2022-11-14T08:10:08;32.63;;;12.83;;
27438;SDS011;14887;51.252;7.470;2022-11-14T08:12:39;22.37;;;11.10;;
27438;SDS011;14887;51.252;7.470;2022-11-14T08:15:06;30.00;;;11.70;;
27438;SDS011;14887;51.252;7.470;2022-11-14T08:17:32;30.97;;;11.73;;
27438;SDS011;14887;51.252;7.470;2022-11-14T08:19:58;27.20;;;12.70;;
27438;SDS011;14887;51.252;7.470;2022-11-14T08:22:24;24.73;;;11.33;;
27438;SDS011;14887;51.252;7.470;2022-11-14T08:24:50;23.73;;;10.93;;
27438;SDS011;14887;51.252;7.470;2022-11-14T08:27:16;35.53;;;13.23;;
27438;SDS011;14887;51.252;7.470;2022-11-14T08:29:42;30.10;;;11.80;;
27438;SDS011;14887;51.252;7.470;2022-11-14T08:32:09;26.53;;;12.90;;
27438;SDS011;14887;51.252;7.470;2022-11-14T08:34:35;30.50;;;14.07;;
27438;SDS011;14887;51.252;7.470;2022-11-14T08:37:01;30.27;;;12.10;;
27438;SDS011;14887;51.252;7.470;2022-11-14T08:39:27;30.10;;;13.17;;
27438;SDS011;14887;51.252;7.470;2022-11-14T08:41:53;34.10;;;13.90;;
27438;SDS011;14887;51.252;7.470;2022-11-14T08:44:20;33.30;;;13.67;;
27438;SDS011;14887;51.252;7.470;2022-11-14T08:46:46;28.67;;;12.63;;
27438;SDS011;14887;51.252;7.470;2022-11-14T08:49:12;46.30;;;14.83;;
27438;SDS011;14887;51.252;7.470;2022-11-14T08:51:38;34.17;;;14.83;;
27438;SDS011;14887;51.252;7.470;2022-11-14T08:54:04;30.77;;;12.17;;
27438;SDS011;14887;51.252;7.470;2022-11-14T08:56:30;32.00;;;15.20;;
27438;SDS011;14887;51.252;7.470;2022-11-14T08:58:56;37.00;;;15.27;;
27438;SDS011;14887;51.252;7.470;2022-11-14T09:01:23;40.20;;;13.17;;
27438;SDS011;14887;51.252;7.470;2022-11-14T09:03:49;31.47;;;13.70;;
27438;SDS011;14887;51.252;7.470;2022-11-14T09:06:15;27.80;;;12.93;;
27438;SDS011;14887;51.252;7.470;2022-11-14T09:08:41;40.80;;;14.20;;
27438;SDS011;14887;51.252;7.470;2022-11-14T09:11:07;34.77;;;15.93;;
27438;SDS011;14887;51.252;7.470;2022-11-14T09:13:33;34.73;;;12.77;;
27438;SDS011;14887;51.252;7.470;2022-11-14T09:15:59;31.33;;;13.80;;
27438;SDS011;14887;51.252;7.470;2022-11-14T09:18:25;37.07;;;14.67;;
27438;SDS011;14887;51.252;7.470;2022-11-14T09:20:51;33.73;;;14.90;;
27438;SDS011;14887;51.252;7.470;2022-11-14T09:23:17;41.73;;;14.67;;
27438;SDS011;14887;51.252;7.470;2022-11-14T09:25:43;35.10;;;13.90;;
27438;SDS011;14887;51.252;7.470;2022-11-14T09:28:09;34.77;;;13.30;;
27438;SDS011;14887;51.252;7.470;2022-11-14T09:30:35;36.13;;;13.20;;
27438;SDS011;14887;51.252;7.470;2022-11-14T09:33:02;31.80;;;14.03;;
27438;SDS011;14887;51.252;7.470;2022-11-14T09:35:29;30.87;;;15.07;;
27438;SDS011;14887;51.252;7.470;2022-11-14T09:37:59;33.80;;;13.20;;
27438;SDS011;14887;51.252;7.470;2022-11-14T09:40:25;30.90;;;13.00;;
27438;SDS011;14887;51.252;7.470;2022-11-14T09:45:23;30.93;;;13.90;;
27438;SDS011;14887;51.252;7.470;2022-11-14T09:47:54;31.83;;;13.80;;
27438;SDS011;14887;51.252;7.470;2022-11-14T09:50:25;33.77;;;14.53;;
27438;SDS011;14887;51.252;7.470;2022-11-14T09:52:55;30.03;;;13.10;;
27438;SDS011;14887;51.252;7.470;2022-11-14T09:55:22;35.33;;;14.70;;
27438;SDS011;14887;51.252;7.470;2022-11-14T09:57:52;29.13;;;12.13;;
27438;SDS011;14887;51.252;7.470;2022-11-14T10:00:19;36.67;;;14.83;;
27438;SDS011;14887;51.252;7.470;2022-11-14T10:02:50;31.07;;;12.63;;
27438;SDS011;14887;51.252;7.470;2022-11-14T10:10:29;31.27;;;13.30;;
27438;SDS011;14887;51.252;7.470;2022-11-14T10:13:16;28.73;;;11.97;;
27438;SDS011;14887;51.252;7.470;2022-11-14T10:16:00;25.17;;;11.77;;
27438;SDS011;14887;51.252;7.470;2022-11-14T10:18:34;23.97;;;11.27;;
27438;SDS011;14887;51.252;7.470;2022-11-14T10:26:35;27.53;;;11.70;;
27438;SDS011;14887;51.252;7.470;2022-11-14T10:34:27;40.13;;;13.63;;
27438;SDS011;14887;51.252;7.470;2022-11-14T10:37:15;24.10;;;12.30;;
27438;SDS011;14887;51.252;7.470;2022-11-14T10:39:43;26.60;;;12.10;;
27438;SDS011;14887;51.252;7.470;2022-11-14T10:42:21;23.47;;;10.70;;
27438;SDS011;14887;51.252;7.470;2022-11-14T10:44:50;31.33;;;12.27;;
27438;SDS011;14887;51.252;7.470;2022-11-14T10:47:19;25.53;;;11.50;;
27438;SDS011;14887;51.252;7.470;2022-11-14T10:49:46;24.90;;;10.80;;
27438;SDS011;14887;51.252;7.470;2022-11-14T10:52:15;21.63;;;9.73;;
27438;SDS011;14887;51.252;7.470;2022-11-14T10:54:44;28.23;;;10.73;;
27438;SDS011;14887;51.252;7.470;2022-11-14T10:57:14;25.03;;;11.70;;
27438;SDS011;14887;51.252;7.470;2022-11-14T10:59:40;26.00;;;11.20;;
27438;SDS011;14887;51.252;7.470;2022-11-14T11:02:09;26.87;;;11.57;;
27438;SDS011;14887;51.252;7.470;2022-11-14T11:04:39;23.73;;;10.50;;
27438;SDS011;14887;51.252;7.470;2022-11-14T11:09:31;24.73;;;11.80;;
27438;SDS011;14887;51.252;7.470;2022-11-14T11:12:18;23.87;;;10.00;;
27438;SDS011;14887;51.252;7.470;2022-11-14T11:14:44;21.00;;;11.13;;
27438;SDS011;14887;51.252;7.470;2022-11-14T11:19:38;25.47;;;12.40;;
27438;SDS011;14887;51.252;7.470;2022-11-14T11:22:08;25.13;;;12.30;;
27438;SDS011;14887;51.252;7.470;2022-11-14T11:24:47;19.80;;;10.03;;
27438;SDS011;14887;51.252;7.470;2022-11-14T11:27:24;25.80;;;10.90;;
27438;SDS011;14887;51.252;7.470;2022-11-14T11:30:04;24.00;;;11.20;;
27438;SDS011;14887;51.252;7.470;2022-11-14T11:32:32;26.93;;;10.67;;
27438;SDS011;14887;51.252;7.470;2022-11-14T11:34:59;19.60;;;9.07;;
27438;SDS011;14887;51.252;7.470;2022-11-14T11:37:26;21.47;;;10.10;;
27438;SDS011;14887;51.252;7.470;2022-11-14T11:39:54;23.17;;;9.77;;
27438;SDS011;14887;51.252;7.470;2022-11-14T11:42:32;17.37;;;8.80;;
27438;SDS011;14887;51.252;7.470;2022-11-14T11:44:59;18.60;;;9.10;;
27438;SDS011;14887;51.252;7.470;2022-11-14T11:47:26;20.10;;;9.17;;
27438;SDS011;14887;51.252;7.470;2022-11-14T11:49:54;18.83;;;8.70;;
27438;SDS011;14887;51.252;7.470;2022-11-14T11:57:35;17.60;;;8.47;;
27438;SDS011;14887;51.252;7.470;2022-11-14T12:00:12;21.73;;;8.50;;
27438;SDS011;14887;51.252;7.470;2022-11-14T12:02:40;17.53;;;8.50;;
27438;SDS011;14887;51.252;7.470;2022-11-14T12:05:09;19.47;;;8.80;;
27438;SDS011;14887;51.252;7.470;2022-11-14T12:10:38;22.60;;;9.67;;
27438;SDS011;14887;51.252;7.470;2022-11-14T12:18:34;16.50;;;8.63;;
27438;SDS011;14887;51.252;7.470;2022-11-14T12:21:09;22.23;;;10.00;;
27438;SDS011;14887;51.252;7.470;2022-11-14T12:31:27;17.20;;;8.13;;
27438;SDS011;14887;51.252;7.470;2022-11-14T12:33:59;17.93;;;9.70;;
27438;SDS011;14887;51.252;7.470;2022-11-14T12:36:30;21.07;;;9.13;;
27438;SDS011;14887;51.252;7.470;2022-11-14T12:38:58;20.90;;;10.17;;
27438;SDS011;14887;51.252;7.470;2022-11-14T12:41:25;26.00;;;9.33;;
27438;SDS011;14887;51.252;7.470;2022-11-14T12:43:51;19.80;;;9.80;;
27438;SDS011;14887;51.252;7.470;2022-11-14T12:46:17;20.87;;;9.30;;
27438;SDS011;14887;51.252;7.470;2022-11-14T12:48:44;22.20;;;7.23;;
27438;SDS011;14887;51.252;7.470;2022-11-14T12:53:48;22.60;;;10.80;;
27438;SDS011;14887;51.252;7.470;2022-11-14T13:04:12;23.40;;;8.70;;
27438;SDS011;14887;51.252;7.470;2022-11-14T13:06:44;24.13;;;9.40;;
27438;SDS011;14887;51.252;7.470;2022-11-14T13:11:44;18.80;;;9.50;;
27438;SDS011;14887;51.252;7.470;2022-11-14T13:14:30;21.77;;;10.30;;
27438;SDS011;14887;51.252;7.470;2022-11-14T13:20:00;19.00;;;9.83;;
27438;SDS011;14887;51.252;7.470;2022-11-14T13:22:46;21.90;;;9.73;;
27438;SDS011;14887;51.252;7.470;2022-11-14T13:25:17;20.67;;;9.07;;
27438;SDS011;14887;51.252;7.470;2022-11-14T13:27:43;16.87;;;8.40;;
27438;SDS011;14887;51.252;7.470;2022-11-14T13:30:09;20.90;;;9.43;;
27438;SDS011;14887;51.252;7.470;2022-11-14T13:37:48;19.37;;;10.70;;
27438;SDS011;14887;51.252;7.470;2022-11-14T13:48:17;25.27;;;11.00;;
27438;SDS011;14887;51.252;7.470;2022-11-14T13:50:48;24.27;;;10.07;;
27438;SDS011;14887;51.252;7.470;2022-11-14T13:53:19;22.60;;;10.93;;
27438;SDS011;14887;51.252;7.470;2022-11-14T13:55:53;40.83;;;12.17;;
27438;SDS011;14887;51.252;7.470;2022-11-14T14:01:07;18.93;;;9.30;;
27438;SDS011;14887;51.252;7.470;2022-11-14T14:03:42;27.00;;;11.90;;
27438;SDS011;14887;51.252;7.470;2022-11-14T14:06:29;21.17;;;10.67;;
27438;SDS011;14887;51.252;7.470;2022-11-14T14:11:46;24.57;;;10.60;;
27438;SDS011;14887;51.252;7.470;2022-11-14T14:14:20;23.60;;;10.30;;
27438;SDS011;14887;51.252;7.470;2022-11-14T14:19:21;26.43;;;9.83;;
27438;SDS011;14887;51.252;7.470;2022-11-14T14:21:56;23.10;;;10.60;;
27438;SDS011;14887;51.252;7.470;2022-11-14T14:27:36;32.00;;;12.63;;
27438;SDS011;14887;51.252;7.470;2022-11-14T14:30:13;26.37;;;11.70;;
27438;SDS011;14887;51.252;7.470;2022-11-14T14:32:40;29.33;;;9.63;;
27438;SDS011;14887;51.252;7.470;2022-11-14T14:35:22;18.77;;;9.67;;
27438;SDS011;14887;51.252;7.470;2022-11-14T14:37:49;27.70;;;10.87;;
27438;SDS011;14887;51.252;7.470;2022-11-14T14:42:54;22.57;;;9.87;;
27438;SDS011;14887;51.252;7.470;2022-11-14T14:45:23;20.33;;;10.80;;
27438;SDS011;14887;51.252;7.470;2022-11-14T14:48:04;25.07;;;10.20;;
27438;SDS011;14887;51.252;7.470;2022-11-14T14:50:40;26.40;;;10.00;;
27438;SDS011;14887;51.252;7.470;2022-11-14T14:53:16;23.17;;;10.20;;
27438;SDS011;14887;51.252;7.470;2022-11-14T14:55:49;20.20;;;9.73;;
27438;SDS011;14887;51.252;7.470;2022-11-14T15:00:58;33.73;;;15.90;;
27438;SDS011;14887;51.252;7.470;2022-11-14T15:03:25;24.17;;;10.33;;
27438;SDS011;14887;51.252;7.470;2022-11-14T15:05:59;19.93;;;9.83;;
27438;SDS011;14887;51.252;7.470;2022-11-14T15:08:25;31.17;;;11.80;;
27438;SDS011;14887;51.252;7.470;2022-11-14T15:10:53;31.40;;;11.13;;
27438;SDS011;14887;51.252;7.470;2022-11-14T15:13:20;24.33;;;10.13;;
27438;SDS011;14887;51.252;7.470;2022-11-14T15:15:47;25.30;;;10.80;;
27438;SDS011;14887;51.252;7.470;2022-11-14T15:18:27;23.90;;;10.40;;
27438;SDS011;14887;51.252;7.470;2022-11-14T15:21:07;20.70;;;9.10;;
27438;SDS011;14887;51.252;7.470;2022-11-14T15:23:33;20.53;;;10.47;;
27438;SDS011;14887;51.252;7.470;2022-11-14T15:26:01;20.30;;;9.83;;
27438;SDS011;14887;51.252;7.470;2022-11-14T15:28:27;20.90;;;10.10;;
27438;SDS011;14887;51.252;7.470;2022-11-14T15:31:00;23.30;;;10.90;;
27438;SDS011;14887;51.252;7.470;2022-11-14T15:33:31;24.77;;;10.83;;
27438;SDS011;14887;51.252;7.470;2022-11-14T15:36:05;25.90;;;10.33;;
27438;SDS011;14887;51.252;7.470;2022-11-14T15:38:31;27.27;;;12.03;;
27438;SDS011;14887;51.252;7.470;2022-11-14T15:41:17;25.83;;;11.00;;
27438;SDS011;14887;51.252;7.470;2022-11-14T15:46:25;19.50;;;10.20;;
27438;SDS011;14887;51.252;7.470;2022-11-14T15:48:51;25.00;;;11.33;;
27438;SDS011;14887;51.252;7.470;2022-11-14T15:51:17;27.90;;;10.93;;
27438;SDS011;14887;51.252;7.470;2022-11-14T15:53:44;19.50;;;9.43;;
27438;SDS011;14887;51.252;7.470;2022-11-14T15:56:11;21.00;;;10.50;;
27438;SDS011;14887;51.252;7.470;2022-11-14T15:58:38;22.63;;;10.73;;
27438;SDS011;14887;51.252;7.470;2022-11-14T16:01:04;21.37;;;9.40;;
27438;SDS011;14887;51.252;7.470;2022-11-14T16:03:30;26.70;;;11.93;;
27438;SDS011;14887;51.252;7.470;2022-11-14T16:05:56;28.13;;;12.10;;
27438;SDS011;14887;51.252;7.470;2022-11-14T16:08:22;28.03;;;15.17;;
27438;SDS011;14887;51.252;7.470;2022-11-14T16:10:48;19.27;;;10.10;;
27438;SDS011;14887;51.252;7.470;2022-11-14T16:13:14;25.37;;;11.97;;
27438;SDS011;14887;51.252;7.470;2022-11-14T16:15:40;21.57;;;10.83;;